Time;durP1;ratioP1;P1;durP2;ratioP2;P2;SDS_P1;SDS_P2;PMS_P1;PMS_P2;Temp;Humidity;BMP_temperature;BMP_pressure;BME280_temperature;BME280_humidity;BME280_pressure;Samples;Min_cycle;Max_cycle;Signal;HPM_P1;HPM_P2
2023/07/30 00:01:30;;;;;;;0.10;0.10;;;;;;;22.17;60.95;100860.72;5030784;28;20415;-84
2023/07/30 00:03:56;;;;;;;0.10;0.10;;;;;;;22.18;61.07;100862.38;4997996;28;20034;-85
2023/07/30 00:06:21;;;;;;;0.10;0.10;;;;;;;22.19;60.76;100852.66;5014048;28;20037;-85
2023/07/30 00:08:47;;;;;;;0.10;0.10;;;;;;;22.24;60.78;100853.06;5013939;28;20040;-85
2023/07/30 00:11:12;;;;;;;0.10;0.10;;;;;;;22.23;60.21;100848.78;4997145;28;20033;-85
2023/07/30 00:13:37;;;;;;;0.10;0.10;;;;;;;22.24;59.87;100839.91;4996968;28;20033;-85
2023/07/30 00:16:03;;;;;;;0.10;0.10;;;;;;;22.35;59.84;100858.16;4997390;28;20025;-84
2023/07/30 00:18:28;;;;;;;0.10;0.10;;;;;;;22.21;59.87;100838.34;4997165;28;20483;-85
2023/07/30 00:20:54;;;;;;;0.10;0.10;;;;;;;22.10;60.43;100853.53;5013560;28;20021;-85
2023/07/30 00:23:19;;;;;;;0.10;0.10;;;;;;;22.16;60.61;100863.50;5031051;28;20037;-84
2023/07/30 00:25:45;;;;;;;0.10;0.10;;;;;;;22.09;61.09;100857.13;5029262;28;20336;-85
2023/07/30 00:28:10;;;;;;;0.10;0.10;;;;;;;22.17;60.68;100852.81;4997149;28;20084;-84
2023/07/30 00:30:36;;;;;;;0.10;0.10;;;;;;;22.11;59.94;100834.09;4997097;28;20033;-84
2023/07/30 00:33:01;;;;;;;0.10;0.10;;;;;;;22.10;60.27;100850.88;5013455;28;20440;-84
2023/07/30 00:35:27;;;;;;;0.10;0.10;;;;;;;22.04;60.37;100850.47;4997046;28;20030;-84
2023/07/30 00:37:52;;;;;;;0.10;0.10;;;;;;;22.00;60.74;100862.25;4996964;28;20036;-84
2023/07/30 00:40:18;;;;;;;0.10;0.10;;;;;;;21.95;60.66;100866.31;4996708;28;20380;-84
2023/07/30 00:42:43;;;;;;;0.10;0.10;;;;;;;22.01;60.20;100869.19;4996913;28;20033;-83
2023/07/30 00:45:09;;;;;;;0.10;0.10;;;;;;;21.92;59.89;100854.22;4996827;28;20033;-84
2023/07/30 00:47:35;;;;;;;0.10;0.10;;;;;;;21.91;60.45;100863.09;4996984;28;20033;-84
2023/07/30 00:50:01;;;;;;;0.10;0.10;;;;;;;21.96;60.34;100862.69;4996906;28;20403;-85
2023/07/30 00:52:26;;;;;;;0.10;0.10;;;;;;;21.87;60.44;100843.31;4996675;28;20044;-84
2023/07/30 00:54:52;;;;;;;0.10;0.10;;;;;;;21.90;60.52;100858.81;5029396;28;20021;-84
2023/07/30 00:57:17;;;;;;;0.10;0.10;;;;;;;21.89;60.05;100843.97;5013176;28;20061;-85
2023/07/30 00:59:43;;;;;;;0.10;0.10;;;;;;;21.93;60.21;100848.00;4996696;28;20025;-84
2023/07/30 01:02:08;;;;;;;0.10;0.10;;;;;;;21.92;60.47;100856.88;5013156;28;20022;-85
2023/07/30 01:04:37;;;;;;;0.10;0.10;;;;;;;21.78;60.33;100844.16;4996751;28;20036;-84
2023/07/30 01:07:02;;;;;;;0.10;0.10;;;;;;;21.80;60.31;100842.22;5012987;28;20506;-84
2023/07/30 01:09:28;;;;;;;0.10;0.10;;;;;;;21.85;60.22;100845.25;4996227;28;20117;-85
2023/07/30 01:11:53;;;;;;;0.10;0.10;;;;;;;21.84;59.83;100840.97;4996479;28;20030;-85
2023/07/30 01:14:19;;;;;;;0.10;0.10;;;;;;;21.88;60.13;100850.22;4980426;28;20041;-84
2023/07/30 01:16:44;;;;;;;0.10;0.10;;;;;;;21.82;60.53;100847.31;5013049;28;20048;-85
2023/07/30 01:19:10;;;;;;;0.10;0.10;;;;;;;21.82;60.42;100848.16;5012887;28;20028;-85
2023/07/30 01:21:35;;;;;;;0.10;0.10;;;;;;;21.74;60.08;100848.06;4980332;28;20029;-84
2023/07/30 01:24:01;;;;;;;0.10;0.10;;;;;;;21.70;61.25;100849.28;4995844;28;20103;-84
2023/07/30 01:26:40;;;;;;;0.10;0.10;;;;;;;21.84;60.85;100862.03;4996211;28;20033;-86
2023/07/30 01:29:12;;;;;;;0.10;0.10;;;;;;;21.85;60.49;100854.97;4996842;28;20026;-84
2023/07/30 01:31:37;;;;;;;0.10;0.10;;;;;;;21.77;60.76;100847.78;5013486;28;20029;-84
2023/07/30 01:34:02;;;;;;;0.10;0.10;;;;;;;21.78;60.83;100854.69;5012963;28;20415;-85
2023/07/30 01:36:28;;;;;;;0.10;0.10;;;;;;;21.59;61.09;100837.13;4996173;28;20070;-84
2023/07/30 01:38:53;;;;;;;0.10;0.10;;;;;;;21.72;61.30;100855.25;5012535;28;20080;-85
2023/07/30 01:41:19;;;;;;;0.10;0.10;;;;;;;21.62;62.04;100843.91;5012885;28;20084;-84
2023/07/30 01:43:44;;;;;;;0.10;0.10;;;;;;;21.65;61.55;100859.44;5012785;28;20041;-85
2023/07/30 01:46:10;;;;;;;0.10;0.10;;;;;;;21.67;61.58;100860.94;4996408;28;20037;-85
2023/07/30 01:48:35;;;;;;;0.10;0.10;;;;;;;21.64;61.89;100863.03;5012422;28;20037;-84
2023/07/30 01:51:01;;;;;;;0.10;0.10;;;;;;;21.57;62.38;100851.41;5012566;28;20044;-84
2023/07/30 01:53:26;;;;;;;0.10;0.10;;;;;;;21.58;62.30;100853.88;4995864;28;20026;-84
2023/07/30 01:55:52;;;;;;;0.10;0.10;;;;;;;21.53;62.45;100844.75;4996232;28;20414;-84
2023/07/30 01:58:17;;;;;;;0.20;0.20;;;;;;;21.53;62.31;100855.28;5029333;28;20025;-84
2023/07/30 02:00:42;;;;;;;0.10;0.10;;;;;;;21.57;62.40;100860.13;4996359;28;20033;-85
2023/07/30 02:03:08;;;;;;;0.10;0.10;;;;;;;21.62;61.74;100864.97;4979881;28;20041;-84
2023/07/30 02:05:33;;;;;;;0.10;0.10;;;;;;;21.57;61.69;100861.94;5015740;28;20033;-84
2023/07/30 02:07:59;;;;;;;0.10;0.10;;;;;;;21.63;61.79;100871.88;4999585;28;20033;-85
2023/07/30 02:10:26;;;;;;;0.10;0.10;;;;;;;21.52;62.04;100864.97;5016173;28;20056;-85
2023/07/30 02:12:51;;;;;;;0.10;0.10;;;;;;;21.53;61.90;100863.16;4999315;28;20124;-84
2023/07/30 02:15:16;;;;;;;0.10;0.10;;;;;;;21.55;61.96;100861.25;4999690;28;20033;-84
2023/07/30 02:17:42;;;;;;;0.10;0.10;;;;;;;21.53;62.22;100866.63;4999968;28;20499;-84
2023/07/30 02:20:08;;;;;;;0.10;0.10;;;;;;;21.28;63.21;100857.50;4983328;28;20026;-85
2023/07/30 02:22:34;;;;;;;0.10;0.10;;;;;;;21.31;64.36;100866.91;5015419;28;20116;-84
2023/07/30 02:24:59;;;;;;;0.10;0.10;;;;;;;21.37;63.95;100861.94;5015591;28;20064;-85
2023/07/30 02:27:25;;;;;;;0.10;0.10;;;;;;;21.32;64.01;100852.78;5015822;28;20026;-84
2023/07/30 02:29:50;;;;;;;0.10;0.10;;;;;;;21.32;64.19;100848.34;4999310;28;20091;-84
2023/07/30 02:32:16;;;;;;;0.10;0.10;;;;;;;21.38;64.43;100863.59;5015544;28;20033;-84
2023/07/30 02:34:41;;;;;;;0.10;0.10;;;;;;;21.31;64.56;100865.13;4999098;28;20026;-84
2023/07/30 02:37:07;;;;;;;0.10;0.10;;;;;;;21.22;65.15;100862.44;4982685;28;20491;-84
2023/07/30 02:39:32;;;;;;;0.10;0.10;;;;;;;21.24;65.14;100866.63;4999129;28;20028;-85
2023/07/30 02:41:57;;;;;;;0.10;0.10;;;;;;;21.22;65.23;100865.91;4999387;28;20040;-85
2023/07/30 02:44:23;;;;;;;0.10;0.10;;;;;;;21.16;65.20;100863.84;4999030;28;20168;-84
2023/07/30 02:46:48;;;;;;;0.10;0.10;;;;;;;21.24;65.56;100871.03;4998919;28;20033;-84
2023/07/30 02:49:14;;;;;;;0.10;0.10;;;;;;;21.34;64.71;100869.31;5015790;28;20476;-84
2023/07/30 02:51:39;;;;;;;0.10;0.10;;;;;;;21.36;64.33;100868.19;4998353;28;20033;-84
2023/07/30 02:54:05;;;;;;;0.10;0.10;;;;;;;21.37;64.32;100861.94;5015579;28;20036;-84
2023/07/30 02:56:30;;;;;;;0.10;0.10;;;;;;;21.47;64.28;100873.31;5015295;28;20056;-85
2023/07/30 02:58:58;;;;;;;0.10;0.10;;;;;;;21.45;64.29;100884.94;4982685;28;20036;-84
2023/07/30 03:01:23;;;;;;;0.10;0.10;;;;;;;21.35;64.56;100876.22;5015080;28;20083;-84
2023/07/30 03:03:48;;;;;;;0.20;0.20;;;;;;;21.43;64.65;100877.19;5015140;28;20025;-85
2023/07/30 03:06:16;;;;;;;0.10;0.10;;;;;;;21.40;64.37;100877.44;4998543;28;20101;-84
2023/07/30 03:08:42;;;;;;;0.10;0.10;;;;;;;21.18;65.40;100867.16;5015138;28;20435;-84
2023/07/30 03:11:07;;;;;;;0.10;0.10;;;;;;;21.24;64.92;100877.16;4982550;28;20034;-85
2023/07/30 03:13:33;;;;;;;0.10;0.10;;;;;;;21.33;64.65;100876.34;4998690;28;20026;-84
2023/07/30 03:15:59;;;;;;;0.10;0.10;;;;;;;21.27;64.49;100869.00;4982235;28;20029;-85
2023/07/30 03:18:24;;;;;;;0.10;0.10;;;;;;;21.28;64.40;100870.66;4998432;28;20438;-84
2023/07/30 03:20:50;;;;;;;0.10;0.10;;;;;;;21.37;64.34;100875.09;5014473;28;20029;-84
2023/07/30 03:23:15;;;;;;;0.10;0.10;;;;;;;21.37;64.46;100884.81;5014552;28;20048;-84
2023/07/30 03:25:41;;;;;;;0.10;0.10;;;;;;;21.41;63.85;100878.28;5014556;28;20056;-84
2023/07/30 03:28:06;;;;;;;0.10;0.10;;;;;;;21.30;64.12;100860.00;5015032;28;20071;-84
2023/07/30 03:30:31;;;;;;;0.20;0.20;;;;;;;21.08;64.81;100859.28;5014355;28;20491;-85
2023/07/30 03:32:57;;;;;;;0.10;0.10;;;;;;;20.91;65.17;100858.13;4981973;28;20495;-85
2023/07/30 03:35:22;;;;;;;0.10;0.10;;;;;;;20.91;65.77;100860.75;4997865;28;20411;-84
2023/07/30 03:37:48;;;;;;;0.10;0.10;;;;;;;20.98;65.08;100858.44;4998072;28;20029;-85
2023/07/30 03:40:13;;;;;;;0.10;0.10;;;;;;;21.08;65.10;100871.59;4998183;28;20030;-84
2023/07/30 03:42:38;;;;;;;0.10;0.10;;;;;;;21.10;65.03;100882.81;4998023;28;20283;-84
2023/07/30 03:45:05;;;;;;;0.10;0.10;;;;;;;20.99;65.45;100885.56;4997956;28;20507;-86
2023/07/30 03:47:30;;;;;;;0.10;0.10;;;;;;;20.90;65.74;100887.19;5014586;28;20040;-85
2023/07/30 03:49:55;;;;;;;0.10;0.10;;;;;;;20.91;65.53;100881.81;4981418;28;20037;-85
2023/07/30 03:52:21;;;;;;;0.20;0.20;;;;;;;20.98;65.66;100886.53;5013922;28;20044;-84
2023/07/30 03:54:46;;;;;;;0.20;0.20;;;;;;;20.94;65.89;100890.38;4981729;28;20557;-84
2023/07/30 03:57:12;;;;;;;0.10;0.10;;;;;;;20.84;65.90;100885.09;4997893;28;20380;-84
2023/07/30 03:59:37;;;;;;;0.10;0.10;;;;;;;20.92;65.48;100888.72;4981498;28;20906;-85
2023/07/30 04:02:04;;;;;;;0.10;0.10;;;;;;;20.86;66.00;100878.75;4997765;28;20067;-84
2023/07/30 04:04:29;;;;;;;0.10;0.10;;;;;;;21.03;65.41;100889.56;4997649;28;20079;-84
2023/07/30 04:06:55;;;;;;;0.10;0.10;;;;;;;20.99;65.16;100883.75;4997520;28;20033;-84
2023/07/30 04:09:20;;;;;;;0.20;0.20;;;;;;;21.04;65.59;100880.72;5013942;28;20033;-83
2023/07/30 04:11:46;;;;;;;0.20;0.20;;;;;;;21.14;64.99;100887.66;5013468;28;20037;-84
2023/07/30 04:14:13;;;;;;;0.10;0.10;;;;;;;21.07;65.55;100896.25;4997720;28;20049;-84
2023/07/30 04:16:38;;;;;;;0.10;0.10;;;;;;;20.97;65.75;100875.19;5013792;28;20042;-84
2023/07/30 04:19:03;;;;;;;0.10;0.10;;;;;;;21.11;65.77;100900.25;4996923;28;20037;-84
2023/07/30 04:21:29;;;;;;;0.10;0.10;;;;;;;21.16;65.46;100887.53;5013714;28;20507;-86
2023/07/30 04:23:55;;;;;;;0.10;0.10;;;;;;;21.18;65.37;100894.31;5013551;28;20105;-84
2023/07/30 04:26:20;;;;;;;0.20;0.20;;;;;;;21.31;65.14;100899.31;5013169;28;20034;-85
2023/07/30 04:28:46;;;;;;;0.10;0.10;;;;;;;21.33;64.62;100886.84;5013296;28;20411;-84
2023/07/30 04:31:11;;;;;;;0.10;0.10;;;;;;;21.41;64.84;100904.59;5029697;28;20029;-84
2023/07/30 04:33:37;;;;;;;0.10;0.10;;;;;;;21.50;64.32;100895.88;4996587;28;20029;-84
2023/07/30 04:36:02;;;;;;;0.10;0.10;;;;;;;21.55;63.97;100900.75;4996867;28;20043;-84
2023/07/30 04:38:29;;;;;;;0.10;0.10;;;;;;;21.56;64.03;100892.69;5013145;28;20495;-84
2023/07/30 04:40:57;;;;;;;0.10;0.10;;;;;;;21.74;63.22;100895.47;5030811;28;20112;-85
2023/07/30 04:43:23;;;;;;;0.10;0.10;;;;;;;21.84;62.71;100896.28;4980863;28;20038;-84
2023/07/30 04:45:48;;;;;;;0.10;0.10;;;;;;;21.90;62.42;100906.22;5030187;28;20036;-84
2023/07/30 04:48:14;;;;;;;0.10;0.10;;;;;;;21.87;62.96;100909.16;4980452;28;20041;-84
2023/07/30 04:50:41;;;;;;;0.10;0.10;;;;;;;21.90;62.65;100911.50;4996880;28;20033;-86
2023/07/30 04:53:07;;;;;;;0.10;0.10;;;;;;;21.98;62.52;100898.44;4997532;28;20025;-85
2023/07/30 04:55:33;;;;;;;0.10;0.10;;;;;;;22.14;61.70;100899.72;5032441;28;20021;-84
2023/07/30 04:57:58;;;;;;;0.10;0.10;;;;;;;22.12;61.27;100897.19;5016520;28;20036;-84
2023/07/30 05:00:24;;;;;;;0.10;0.10;;;;;;;22.16;61.22;100889.84;5016274;28;20036;-84
2023/07/30 05:02:49;;;;;;;0.10;0.10;;;;;;;22.23;61.81;100899.69;5016179;28;20032;-84
2023/07/30 05:05:15;;;;;;;0.10;0.10;;;;;;;22.41;60.72;100910.28;5032901;28;20079;-84
2023/07/30 05:07:40;;;;;;;0.10;0.10;;;;;;;22.43;60.97;100910.97;5016341;28;20593;-84
2023/07/30 05:10:09;;;;;;;0.10;0.10;;;;;;;22.33;61.40;100892.56;4999952;28;20043;-85
2023/07/30 05:12:35;;;;;;;0.10;0.10;;;;;;;22.56;60.72;100911.47;5033272;28;20024;-84
2023/07/30 05:15:00;;;;;;;0.10;0.10;;;;;;;22.66;60.23;100916.69;5016114;28;20086;-84
2023/07/30 05:17:26;;;;;;;0.10;0.10;;;;;;;22.68;60.24;100912.09;4999365;28;20442;-84
2023/07/30 05:19:51;;;;;;;0.10;0.10;;;;;;;22.67;59.75;100904.34;4999958;28;20033;-85
2023/07/30 05:22:17;;;;;;;0.10;0.10;;;;;;;22.75;59.29;100907.91;4999887;28;20478;-84
2023/07/30 05:24:43;;;;;;;0.10;0.10;;;;;;;22.95;58.00;100907.84;4996478;28;20495;-84
2023/07/30 05:27:08;;;;;;;0.10;0.10;;;;;;;23.11;57.65;100914.13;4996696;28;20564;-86
2023/07/30 05:29:34;;;;;;;0.10;0.10;;;;;;;23.17;57.56;100907.41;5029388;28;20026;-85
2023/07/30 05:31:59;;;;;;;0.20;0.20;;;;;;;23.30;57.51;100907.03;4996219;28;20545;-84
2023/07/30 05:34:24;;;;;;;0.10;0.10;;;;;;;23.39;57.03;100914.03;5028963;28;20037;-85
2023/07/30 05:36:50;;;;;;;0.10;0.10;;;;;;;23.44;56.76;100914.44;5012897;28;20037;-85
2023/07/30 05:39:15;;;;;;;0.10;0.10;;;;;;;23.50;56.57;100900.63;4997641;28;20044;-85
2023/07/30 05:41:41;;;;;;;0.10;0.10;;;;;;;23.61;56.41;100899.59;5016702;28;20080;-84
2023/07/30 05:44:06;;;;;;;0.10;0.10;;;;;;;23.78;56.71;100911.09;5016454;28;20033;-85
2023/07/30 05:46:32;;;;;;;0.10;0.10;;;;;;;23.65;55.16;100885.09;5016186;28;20026;-84
2023/07/30 05:48:57;;;;;;;0.10;0.10;;;;;;;23.90;56.44;100915.19;5033078;28;20483;-84
2023/07/30 05:51:23;;;;;;;0.10;0.10;;;;;;;23.91;57.05;100914.19;5034101;28;20029;-85
2023/07/30 05:53:48;;;;;;;0.10;0.10;;;;;;;24.06;56.60;100912.63;5016393;28;20507;-84
2023/07/30 05:56:14;;;;;;;0.10;0.10;;;;;;;24.23;55.59;100917.03;4999963;28;20491;-85
2023/07/30 05:58:39;;;;;;;0.10;0.10;;;;;;;24.21;56.21;100908.44;4999655;28;20111;-84
2023/07/30 06:01:05;;;;;;;0.10;0.10;;;;;;;24.30;56.28;100901.38;4999585;28;20026;-85
2023/07/30 06:03:30;;;;;;;0.20;0.20;;;;;;;24.48;55.98;100915.41;5016181;28;20068;-86
2023/07/30 06:05:56;;;;;;;0.10;0.10;;;;;;;24.57;56.08;100918.88;5016254;28;20021;-84
2023/07/30 06:08:21;;;;;;;0.20;0.20;;;;;;;24.66;56.24;100907.34;5032452;28;20156;-85
2023/07/30 06:10:47;;;;;;;0.10;0.10;;;;;;;24.72;56.78;100905.88;5016206;28;20407;-84
2023/07/30 06:13:12;;;;;;;0.20;0.20;;;;;;;24.77;56.67;100907.06;5015506;28;20407;-84
2023/07/30 06:15:38;;;;;;;0.10;0.10;;;;;;;24.91;56.03;100907.44;5016145;28;20403;-85
2023/07/30 06:18:03;;;;;;;0.20;0.20;;;;;;;25.06;56.01;100916.44;5016296;28;20029;-84
2023/07/30 06:20:29;;;;;;;0.20;0.20;;;;;;;25.10;55.96;100920.44;5015822;28;20108;-84
2023/07/30 06:22:54;;;;;;;0.20;0.20;;;;;;;25.11;55.48;100903.56;5015974;28;20033;-85
2023/07/30 06:25:20;;;;;;;0.20;0.20;;;;;;;25.32;55.38;100911.84;5015446;28;20053;-85
2023/07/30 06:27:45;;;;;;;0.20;0.20;;;;;;;25.41;55.75;100908.22;5015708;28;20033;-85
2023/07/30 06:30:11;;;;;;;0.20;0.20;;;;;;;25.47;55.28;100912.03;5015176;28;20064;-85
2023/07/30 06:32:36;;;;;;;0.20;0.20;;;;;;;25.55;54.96;100898.78;5015670;28;20503;-85
2023/07/30 06:35:02;;;;;;;0.10;0.10;;;;;;;25.57;53.86;100896.00;5031928;28;20029;-85
2023/07/30 06:37:28;;;;;;;0.20;0.20;;;;;;;25.74;53.69;100898.47;5032021;28;20033;-85
2023/07/30 06:39:53;;;;;;;0.10;0.10;;;;;;;25.86;53.25;100891.03;5015315;28;20036;-84
2023/07/30 06:42:19;;;;;;;0.10;0.10;;;;;;;26.01;52.88;100894.63;4999180;28;20037;-85
2023/07/30 06:44:44;;;;;;;0.10;0.10;;;;;;;26.07;52.95;100893.13;5015206;28;20038;-84
2023/07/30 06:47:10;;;;;;;0.15;0.15;;;;;;;26.08;51.67;100880.72;5031703;28;20396;-84
2023/07/30 06:49:36;;;;;;;0.20;0.20;;;;;;;26.02;52.76;100884.84;5014871;28;20029;-85
2023/07/30 06:52:02;;;;;;;0.10;0.10;;;;;;;26.09;51.63;100892.97;4998959;28;20025;-85
2023/07/30 06:54:29;;;;;;;0.10;0.10;;;;;;;26.20;52.57;100882.81;5031847;28;20076;-85
2023/07/30 06:56:54;;;;;;;0.20;0.20;;;;;;;26.26;51.73;100883.97;4999050;28;20478;-84
2023/07/30 06:59:20;;;;;;;0.20;0.20;;;;;;;26.35;51.77;100882.94;4998535;28;20033;-85
2023/07/30 07:01:45;;;;;;;0.20;0.20;;;;;;;26.61;51.94;100884.53;5015196;28;20404;-85
2023/07/30 07:04:11;;;;;;;0.20;0.20;;;;;;;26.68;51.38;100866.91;5033116;28;20033;-85
2023/07/30 07:06:36;;;;;;;0.20;0.20;;;;;;;26.91;51.75;100874.91;5031760;28;20034;-85
2023/07/30 07:09:01;;;;;;;0.10;0.10;;;;;;;26.96;51.18;100864.59;5014800;28;20530;-84
2023/07/30 07:11:27;;;;;;;0.10;0.10;;;;;;;27.19;49.92;100875.25;5030862;28;20029;-85
2023/07/30 07:13:52;;;;;;;0.10;0.10;;;;;;;27.23;49.53;100857.94;4998482;28;20491;-85
2023/07/30 07:16:18;;;;;;;0.20;0.20;;;;;;;27.40;50.56;100867.44;5014674;28;20052;-85
2023/07/30 07:18:44;;;;;;;0.20;0.20;;;;;;;27.42;50.12;100868.09;5031388;28;20029;-84
2023/07/30 07:21:10;;;;;;;0.20;0.20;;;;;;;27.49;50.60;100855.75;5014883;28;20079;-85
2023/07/30 07:23:35;;;;;;;0.20;0.20;;;;;;;27.61;51.05;100856.94;5015709;28;20052;-84
2023/07/30 07:26:01;;;;;;;0.20;0.20;;;;;;;27.68;50.82;100860.56;5017726;28;20399;-85
2023/07/30 07:28:26;;;;;;;0.20;0.20;;;;;;;27.77;50.46;100852.53;5017795;28;20055;-85
2023/07/30 07:30:52;;;;;;;0.10;0.10;;;;;;;27.86;49.46;100860.25;5018080;28;20032;-85
2023/07/30 07:33:17;;;;;;;0.20;0.20;;;;;;;27.86;50.24;100846.13;5017693;28;20029;-85
2023/07/30 07:35:43;;;;;;;0.20;0.20;;;;;;;28.07;49.28;100850.72;5017836;28;20445;-86
2023/07/30 07:38:08;;;;;;;0.20;0.20;;;;;;;28.24;49.79;100850.34;5001403;28;20029;-85
2023/07/30 07:40:39;;;;;;;0.20;0.20;;;;;;;28.49;49.84;100845.56;5017547;28;20025;-85
2023/07/30 07:43:05;;;;;;;0.20;0.20;;;;;;;28.59;48.15;100829.28;5034095;28;20025;-85
2023/07/30 07:45:30;;;;;;;0.20;0.20;;;;;;;28.69;47.94;100839.63;5017385;28;20082;-85
2023/07/30 07:47:56;;;;;;;0.20;0.20;;;;;;;28.76;47.53;100835.22;5017311;28;20056;-85
2023/07/30 07:50:21;;;;;;;0.20;0.20;;;;;;;28.89;46.70;100839.88;5051996;28;20487;-85
2023/07/30 07:52:47;;;;;;;0.20;0.20;;;;;;;29.09;46.72;100840.88;5017364;28;20033;-84
2023/07/30 07:55:12;;;;;;;0.20;0.20;;;;;;;29.19;46.24;100841.41;5017079;28;20486;-85
2023/07/30 07:57:38;;;;;;;0.20;0.20;;;;;;;29.35;46.17;100837.66;5000923;28;20031;-85
2023/07/30 08:00:05;;;;;;;0.10;0.10;;;;;;;29.53;45.36;100838.03;5033498;28;20033;-85
2023/07/30 08:02:30;;;;;;;0.20;0.20;;;;;;;29.54;45.37;100828.19;5033009;28;20074;-85
2023/07/30 08:04:56;;;;;;;0.20;0.20;;;;;;;29.64;45.22;100831.34;5051548;28;20025;-85
2023/07/30 08:07:21;;;;;;;0.20;0.20;;;;;;;29.80;45.07;100822.22;5016895;28;20298;-84
2023/07/30 08:09:47;;;;;;;0.20;0.20;;;;;;;29.91;44.85;100833.16;5033417;28;20103;-85
2023/07/30 08:12:14;;;;;;;0.20;0.20;;;;;;;29.86;45.00;100800.91;5016787;28;20036;-86
2023/07/30 08:14:39;;;;;;;0.20;0.20;;;;;;;30.19;43.94;100833.13;5017484;28;20029;-84
2023/07/30 08:17:05;;;;;;;0.20;0.20;;;;;;;30.15;44.04;100823.03;5016848;28;20025;-86
2023/07/30 08:19:30;;;;;;;0.20;0.20;;;;;;;30.20;42.33;100812.59;5017030;28;20083;-85
2023/07/30 08:21:56;;;;;;;0.20;0.20;;;;;;;30.46;42.01;100822.53;5033702;28;20407;-85
2023/07/30 08:24:22;;;;;;;0.20;0.20;;;;;;;30.58;42.57;100836.13;5016588;28;20103;-85
2023/07/30 08:26:48;;;;;;;0.20;0.20;;;;;;;30.51;42.00;100804.91;5016703;28;20540;-85
2023/07/30 08:29:13;;;;;;;0.20;0.20;;;;;;;30.92;41.72;100838.72;5016909;28;20041;-85
2023/07/30 08:31:40;;;;;;;0.20;0.20;;;;;;;31.01;41.14;100836.69;5017143;28;20409;-85
2023/07/30 08:34:05;;;;;;;0.20;0.20;;;;;;;31.18;40.88;100834.44;5000399;28;20024;-85
2023/07/30 08:36:31;;;;;;;0.20;0.20;;;;;;;31.33;40.20;100837.75;5000477;28;20387;-86
2023/07/30 08:38:57;;;;;;;0.20;0.20;;;;;;;31.35;39.96;100827.66;5016495;28;20387;-85
2023/07/30 08:41:23;;;;;;;0.20;0.20;;;;;;;31.46;39.32;100829.72;5016522;28;20044;-87
2023/07/30 08:43:48;;;;;;;0.20;0.20;;;;;;;31.56;39.62;100827.47;5016531;28;20025;-85
2023/07/30 08:46:15;;;;;;;0.20;0.20;;;;;;;31.61;39.58;100826.84;5033900;28;20075;-84
2023/07/30 08:48:41;;;;;;;0.20;0.20;;;;;;;31.85;39.44;100822.69;5016633;28;20033;-85
2023/07/30 08:51:06;;;;;;;0.20;0.20;;;;;;;32.07;38.88;100810.69;5000181;28;20032;-86
2023/07/30 08:53:31;;;;;;;0.20;0.20;;;;;;;32.21;38.14;100814.94;5050235;28;20029;-86
2023/07/30 08:55:58;;;;;;;0.20;0.20;;;;;;;32.16;38.10;100800.59;5017463;28;20501;-85
2023/07/30 08:58:23;;;;;;;0.20;0.20;;;;;;;32.42;37.46;100821.06;5017198;28;20025;-86
2023/07/30 09:00:49;;;;;;;0.20;0.20;;;;;;;32.50;37.46;100810.13;5000100;28;20040;-85
2023/07/30 09:03:15;;;;;;;0.20;0.20;;;;;;;32.51;36.67;100803.72;5032635;28;20387;-86
2023/07/30 09:05:40;;;;;;;0.20;0.20;;;;;;;32.63;36.40;100812.69;5000089;28;20031;-85
2023/07/30 09:08:06;;;;;;;0.20;0.20;;;;;;;32.74;35.91;100811.19;5032618;28;20410;-86
2023/07/30 09:10:31;;;;;;;0.20;0.20;;;;;;;32.86;36.07;100803.34;5016461;28;20051;-86
2023/07/30 09:13:00;;;;;;;0.20;0.20;;;;;;;33.07;35.54;100805.63;5017919;28;20040;-85
2023/07/30 09:15:37;;;;;;;0.20;0.20;;;;;;;33.28;34.68;100799.88;5023127;28;20087;-85
2023/07/30 09:18:03;;;;;;;0.20;0.20;;;;;;;33.25;34.55;100805.69;5023670;28;20028;-84
2023/07/30 09:20:36;;;;;;;0.20;0.20;;;;;;;33.37;34.13;100805.81;5022929;28;20021;-86
2023/07/30 09:23:02;;;;;;;0.20;0.20;;;;;;;33.49;33.30;100808.59;5022370;28;20029;-85
2023/07/30 09:25:27;;;;;;;0.20;0.20;;;;;;;33.63;33.82;100804.75;5022602;28;20541;-85
2023/07/30 09:27:53;;;;;;;0.20;0.20;;;;;;;33.60;33.40;100781.84;5022777;28;20029;-86
2023/07/30 09:30:23;;;;;;;0.20;0.20;;;;;;;33.75;33.67;100786.88;5022424;28;20029;-86
2023/07/30 09:32:51;;;;;;;0.20;0.20;;;;;;;33.73;33.61;100780.06;5023066;28;20033;-85
2023/07/30 09:35:16;;;;;;;0.20;0.20;;;;;;;33.67;33.48;100779.13;5022814;28;20037;-86
2023/07/30 09:37:42;;;;;;;0.20;0.20;;;;;;;33.84;33.52;100790.06;5022320;28;20051;-86
2023/07/30 09:40:08;;;;;;;0.20;0.20;;;;;;;33.97;33.11;100778.38;5039492;28;20048;-86
2023/07/30 09:42:37;;;;;;;0.20;0.20;;;;;;;34.25;32.51;100778.66;5022758;28;20060;-86
2023/07/30 09:45:03;;;;;;;0.20;0.20;;;;;;;34.31;31.80;100782.28;5023105;28;20433;-86
2023/07/30 09:47:30;;;;;;;0.20;0.20;;;;;;;34.50;31.57;100773.97;5022585;28;20025;-87
2023/07/30 09:49:56;;;;;;;0.20;0.20;;;;;;;34.59;30.72;100769.09;5022552;28;20025;-85
2023/07/30 09:52:21;;;;;;;0.20;0.20;;;;;;;34.47;29.47;100762.88;5022044;28;20079;-85
2023/07/30 09:54:49;;;;;;;0.20;0.20;;;;;;;34.43;29.58;100757.16;5022286;28;20040;-86
2023/07/30 09:57:15;;;;;;;0.20;0.20;;;;;;;34.45;29.66;100760.41;5022952;28;20025;-86
2023/07/30 09:59:41;;;;;;;0.20;0.20;;;;;;;34.60;29.49;100753.78;5038742;28;20090;-86
2023/07/30 10:02:06;;;;;;;0.20;0.20;;;;;;;34.62;29.33;100743.66;5022549;28;20025;-86
2023/07/30 10:04:32;;;;;;;0.20;0.20;;;;;;;34.73;29.05;100740.16;5022326;28;20338;-87
2023/07/30 10:07:07;;;;;;;0.20;0.20;;;;;;;34.74;29.15;100748.00;5022079;28;20387;-86
2023/07/30 10:09:35;;;;;;;0.20;0.20;;;;;;;34.72;28.95;100736.66;5022623;28;20036;-86
2023/07/30 10:12:00;;;;;;;0.30;0.30;;;;;;;34.82;28.16;100737.97;5038995;28;20021;-86
2023/07/30 10:14:26;;;;;;;0.30;0.30;;;;;;;34.84;28.97;100727.78;5005826;28;20028;-87
2023/07/30 10:16:55;;;;;;;0.30;0.30;;;;;;;34.91;29.10;100734.72;5022074;28;20477;-86
2023/07/30 10:19:27;;;;;;;0.30;0.30;;;;;;;35.16;29.20;100725.59;5022237;28;20116;-88
2023/07/30 10:22:12;;;;;;;0.30;0.30;;;;;;;35.28;29.57;100726.41;5021927;28;20494;-86
2023/07/30 10:24:40;;;;;;;0.20;0.20;;;;;;;35.29;29.16;100728.03;5036688;28;20140;-86
2023/07/30 10:27:12;;;;;;;0.22;0.22;;;;;;;35.23;29.64;100713.69;5003189;28;20406;-87
2023/07/30 10:29:41;;;;;;;0.30;0.30;;;;;;;35.00;29.56;100711.78;5020103;28;20036;-87
2023/07/30 10:32:06;;;;;;;0.28;0.28;;;;;;;35.11;30.09;100707.50;5019182;28;20029;-87
2023/07/30 10:34:47;;;;;;;0.30;0.30;;;;;;;35.25;30.08;100705.38;5019120;28;20399;-86
2023/07/30 10:37:23;;;;;;;0.20;0.20;;;;;;;35.38;29.34;100710.53;5035696;28;20112;-87
2023/07/30 10:39:49;;;;;;;0.20;0.20;;;;;;;35.40;29.35;100700.38;5019103;28;20033;-87
2023/07/30 10:42:14;;;;;;;0.30;0.30;;;;;;;35.44;29.38;100692.63;5035549;28;20032;-86
2023/07/30 10:44:43;;;;;;;0.22;0.22;;;;;;;35.56;29.47;100696.91;5018663;28;20350;-87
2023/07/30 10:47:08;;;;;;;0.30;0.30;;;;;;;35.58;29.16;100683.22;5002506;28;20021;-86
2023/07/30 10:49:43;;;;;;;0.28;0.28;;;;;;;35.69;29.40;100673.47;5018454;28;20028;-86
2023/07/30 10:52:09;;;;;;;0.30;0.30;;;;;;;35.78;29.02;100677.41;5035981;28;20028;-87
2023/07/30 10:54:34;;;;;;;0.30;0.30;;;;;;;35.91;29.85;100671.81;5018749;28;20028;-87
2023/07/30 10:57:00;;;;;;;0.30;0.30;;;;;;;35.96;29.28;100669.19;5001974;28;20036;-86
2023/07/30 10:59:25;;;;;;;0.30;0.30;;;;;;;35.98;29.20;100675.13;5018464;28;20028;-86
2023/07/30 11:01:51;;;;;;;0.30;0.30;;;;;;;36.13;29.35;100680.81;5018605;28;20032;-87
2023/07/30 11:04:18;;;;;;;0.25;0.25;;;;;;;36.30;28.51;100677.34;5001718;28;20104;-87
2023/07/30 11:06:49;;;;;;;0.30;0.30;;;;;;;36.51;27.43;100673.13;5018269;28;20108;-86
2023/07/30 11:09:21;;;;;;;0.20;0.20;;;;;;;36.57;26.92;100670.25;5018787;28;20445;-86
2023/07/30 11:11:47;;;;;;;0.25;0.25;;;;;;;36.52;27.52;100656.72;5018642;28;20017;-86
2023/07/30 11:14:16;;;;;;;0.30;0.30;;;;;;;36.57;27.79;100658.66;5018338;28;20090;-86
2023/07/30 11:16:58;;;;;;;0.20;0.20;;;;;;;36.52;27.80;100645.94;5018367;28;20032;-87
2023/07/30 11:19:24;;;;;;;0.30;0.30;;;;;;;36.52;27.10;100635.16;5017996;28;20379;-86